createdAt,value
2023-04-10T00:00:57.580Z,5.18
2023-04-10T00:03:28.228Z,5.16
2023-04-10T00:06:00.562Z,5.04
2023-04-10T00:08:30.382Z,5.05
2023-04-10T00:10:59.936Z,5.03
2023-04-10T00:13:29.736Z,4.98
2023-04-10T00:15:59.195Z,4.93
2023-04-10T00:18:28.877Z,4.92
2023-04-10T00:21:00.969Z,4.90
2023-04-10T00:23:32.022Z,4.86
2023-04-10T00:26:01.627Z,4.92
2023-04-10T00:28:31.145Z,4.92
2023-04-10T00:31:00.663Z,4.93
2023-04-10T00:33:30.137Z,4.89
2023-04-10T00:36:02.233Z,5.00
2023-04-10T00:38:31.743Z,5.03
2023-04-10T00:41:01.323Z,5.02
2023-04-10T00:43:30.876Z,5.04
2023-04-10T00:46:00.467Z,4.99
2023-04-10T00:48:30.081Z,4.96
2023-04-10T00:51:02.366Z,4.89
2023-04-10T00:53:32.410Z,4.89
2023-04-10T00:56:02.065Z,4.91
2023-04-10T00:58:31.570Z,4.93
2023-04-10T01:01:02.264Z,4.87
2023-04-10T01:03:32.100Z,4.86
2023-04-10T01:06:08.966Z,4.87
2023-04-10T01:08:44.178Z,4.81
2023-04-10T01:11:17.712Z,4.89
2023-04-10T01:13:54.566Z,4.89
2023-04-10T01:16:29.860Z,4.85
2023-04-10T01:19:02.916Z,4.80
2023-04-10T01:21:36.891Z,4.90
2023-04-10T01:24:24.851Z,4.85
2023-04-10T01:27:11.519Z,4.84
2023-04-10T01:29:46.203Z,4.83
2023-04-10T01:32:18.012Z,4.91
2023-04-10T01:34:48.751Z,4.85
2023-04-10T01:37:21.118Z,4.95
2023-04-10T01:39:54.041Z,4.97
2023-04-10T01:42:24.006Z,4.91
2023-04-10T01:44:56.799Z,4.90
2023-04-10T01:47:28.214Z,5.09
2023-04-10T01:49:58.077Z,5.16
2023-04-10T01:52:28.166Z,5.07
2023-04-10T01:54:57.881Z,5.07
2023-04-10T01:57:27.552Z,5.06
2023-04-10T01:59:59.678Z,5.13
2023-04-10T02:02:33.722Z,5.23
2023-04-10T02:05:03.856Z,5.16
2023-04-10T02:07:38.858Z,5.24
2023-04-10T02:10:13.295Z,5.29
2023-04-10T02:12:47.210Z,5.14
2023-04-10T02:15:19.909Z,5.13
2023-04-10T02:17:49.441Z,5.06
2023-04-10T02:20:19.112Z,5.07
2023-04-10T02:22:48.811Z,5.19
2023-04-10T02:25:19.114Z,5.22
2023-04-10T02:27:48.581Z,5.25
2023-04-10T02:30:20.826Z,5.29
2023-04-10T02:32:50.355Z,5.31
2023-04-10T02:35:20.057Z,5.31
2023-04-10T02:37:50.871Z,5.23
2023-04-10T02:40:20.442Z,5.19
2023-04-10T02:42:49.963Z,5.19
2023-04-10T02:45:22.084Z,5.24
2023-04-10T02:47:51.981Z,5.16
2023-04-10T02:50:21.646Z,5.15
2023-04-10T02:52:51.377Z,5.22
2023-04-10T02:55:21.115Z,5.14
2023-04-10T02:57:50.568Z,4.97
2023-04-10T03:00:23.154Z,5.06
2023-04-10T03:02:53.845Z,5.08
2023-04-10T03:05:23.796Z,5.07
2023-04-10T03:07:54.375Z,5.11
2023-04-10T03:10:24.725Z,5.11
2023-04-10T03:12:54.236Z,5.13
2023-04-10T03:15:26.607Z,4.99
2023-04-10T03:17:56.790Z,4.81
2023-04-10T03:20:26.636Z,4.76
2023-04-10T03:22:56.163Z,4.69
2023-04-10T03:25:25.944Z,4.78
2023-04-10T03:27:55.655Z,4.77
2023-04-10T03:30:27.847Z,4.83
2023-04-10T03:32:57.396Z,4.88
2023-04-10T03:35:26.905Z,4.98
2023-04-10T03:37:56.424Z,5.01
2023-04-10T03:40:26.620Z,4.93
2023-04-10T03:42:56.113Z,5.06
2023-04-10T03:45:28.240Z,5.02
2023-04-10T03:47:57.808Z,5.00
2023-04-10T03:50:27.299Z,5.10
2023-04-10T03:52:56.792Z,5.13
2023-04-10T03:55:26.285Z,5.05
2023-04-10T03:57:56.133Z,5.02
2023-04-10T04:00:28.829Z,5.03
2023-04-10T04:02:58.937Z,4.96
2023-04-10T04:05:31.012Z,4.95
2023-04-10T04:08:00.652Z,4.82
2023-04-10T04:10:30.130Z,4.84
2023-04-10T04:12:59.629Z,4.84
2023-04-10T04:15:31.716Z,4.84
2023-04-10T04:18:01.253Z,4.79
2023-04-10T04:20:30.796Z,4.67
2023-04-10T04:23:00.477Z,4.76
2023-04-10T04:25:30.084Z,4.72
2023-04-10T04:27:59.606Z,4.61
2023-04-10T04:30:31.875Z,4.50
2023-04-10T04:33:01.426Z,4.53
2023-04-10T04:35:31.083Z,4.58
2023-04-10T04:38:00.644Z,4.52
2023-04-10T04:40:30.122Z,4.70
2023-04-10T04:42:59.609Z,4.81
2023-04-10T04:45:32.358Z,4.75
2023-04-10T04:48:01.954Z,4.81
2023-04-10T04:50:31.514Z,4.87
2023-04-10T04:53:00.992Z,4.67
2023-04-10T04:55:30.544Z,4.62
2023-04-10T04:58:00.111Z,4.59
2023-04-10T05:00:32.272Z,4.70
2023-04-10T05:03:02.194Z,4.78
2023-04-10T05:05:31.763Z,4.75
2023-04-10T05:08:01.286Z,4.78
2023-04-10T05:10:30.803Z,4.79
2023-04-10T05:13:00.458Z,4.79
2023-04-10T05:15:32.638Z,4.85
2023-04-10T05:18:02.356Z,5.00
2023-04-10T05:20:32.080Z,5.05
2023-04-10T05:23:01.691Z,4.99
2023-04-10T05:25:31.295Z,4.94
2023-04-10T05:28:00.857Z,5.04
2023-04-10T05:30:32.919Z,5.16
2023-04-10T05:33:02.488Z,5.12
2023-04-10T05:35:31.976Z,5.18
2023-04-10T05:38:01.839Z,5.25
2023-04-10T05:40:32.719Z,6.61
2023-04-10T05:43:02.256Z,7.15
2023-04-10T05:45:34.408Z,7.08
2023-04-10T05:48:03.879Z,7.15
2023-04-10T05:50:33.439Z,7.06
2023-04-10T05:53:02.925Z,7.13
2023-04-10T05:55:34.011Z,7.19
2023-04-10T05:58:03.489Z,7.42
2023-04-10T06:00:35.657Z,7.35
2023-04-10T06:03:05.316Z,7.42
2023-04-10T06:05:37.794Z,7.41
2023-04-10T06:08:07.661Z,7.51
2023-04-10T06:10:37.152Z,7.83
2023-04-10T06:13:07.752Z,7.87
2023-04-10T06:15:41.388Z,7.68
2023-04-10T06:18:11.063Z,8.35
2023-04-10T06:20:40.814Z,8.28
2023-04-10T06:23:10.466Z,7.88
2023-04-10T06:25:39.954Z,7.63
2023-04-10T06:28:09.493Z,7.57
2023-04-10T06:30:41.530Z,7.38
2023-04-10T06:33:11.053Z,7.21
2023-04-10T06:35:40.793Z,7.27
2023-04-10T06:38:10.532Z,7.21
2023-04-10T06:40:40.116Z,7.26
2023-04-10T06:43:09.585Z,7.16
2023-04-10T06:45:41.742Z,7.27
2023-04-10T06:48:11.260Z,7.38
2023-04-10T06:50:40.818Z,7.31
2023-04-10T06:53:10.402Z,7.32
2023-04-10T06:55:40.509Z,7.30
2023-04-10T06:58:10.132Z,7.30
2023-04-10T07:00:42.255Z,7.26
2023-04-10T07:03:11.789Z,7.28
2023-04-10T07:05:42.326Z,7.24
2023-04-10T07:08:11.994Z,7.44
2023-04-10T07:10:41.514Z,7.65
2023-04-10T07:13:11.017Z,7.72
2023-04-10T07:15:43.105Z,7.64
2023-04-10T07:18:12.595Z,7.68
2023-04-10T07:20:42.095Z,7.77
2023-04-10T07:23:11.926Z,7.76
2023-04-10T07:25:41.518Z,7.86
2023-04-10T07:28:11.355Z,8.06
2023-04-10T07:30:43.432Z,8.14
2023-04-10T07:33:13.130Z,8.23
2023-04-10T07:35:42.852Z,8.23
2023-04-10T07:38:13.595Z,8.35
2023-04-10T07:40:43.129Z,8.28
2023-04-10T07:43:12.658Z,8.42
2023-04-10T07:45:44.735Z,8.53
2023-04-10T07:48:14.383Z,8.75
2023-04-10T07:50:43.879Z,8.87
2023-04-10T07:53:13.367Z,8.93
2023-04-10T07:55:42.945Z,9.04
2023-04-10T07:58:12.766Z,9.14
2023-04-10T08:00:44.906Z,9.32
2023-04-10T08:03:15.018Z,9.35
2023-04-10T08:05:44.644Z,9.47
2023-04-10T08:08:14.272Z,9.66
2023-04-10T08:10:43.768Z,9.55
2023-04-10T08:13:13.315Z,9.65
2023-04-10T08:15:45.544Z,9.71
2023-04-10T08:18:15.073Z,9.82
2023-04-10T08:20:44.607Z,9.97
2023-04-10T08:23:20.367Z,10.08
2023-04-10T08:25:50.105Z,10.04
2023-04-10T08:28:21.124Z,10.12
2023-04-10T08:30:53.266Z,10.43
2023-04-10T08:33:22.844Z,10.57
2023-04-10T08:35:52.336Z,10.70
2023-04-10T08:38:23.922Z,10.51
2023-04-10T08:40:53.448Z,10.67
2023-04-10T08:43:22.969Z,10.76
2023-04-10T08:45:55.620Z,10.80
2023-04-10T08:48:29.480Z,11.00
2023-04-10T08:51:00.997Z,11.10
2023-04-10T08:53:34.034Z,11.08
2023-04-10T08:56:05.676Z,11.06
2023-04-10T08:58:35.892Z,11.13
2023-04-10T09:01:08.425Z,11.19
2023-04-10T09:03:38.144Z,11.35
2023-04-10T09:06:08.668Z,11.51
2023-04-10T09:08:38.292Z,11.64
2023-04-10T09:11:08.689Z,11.87
2023-04-10T09:13:40.427Z,11.79
2023-04-10T09:16:13.511Z,11.90
2023-04-10T09:18:48.378Z,12.04
2023-04-10T09:21:19.347Z,12.38
2023-04-10T09:23:50.643Z,12.49
2023-04-10T09:26:27.886Z,12.53
2023-04-10T09:29:02.229Z,12.67
2023-04-10T09:31:36.700Z,12.52
2023-04-10T09:34:14.812Z,12.73
2023-04-10T09:36:44.847Z,12.99
2023-04-10T09:39:15.781Z,13.03
2023-04-10T09:41:52.983Z,13.02
2023-04-10T09:44:31.936Z,13.17
2023-04-10T09:47:19.251Z,13.15
2023-04-10T09:49:50.152Z,13.43
2023-04-10T09:52:24.915Z,13.52
2023-04-10T09:54:54.808Z,13.54
2023-04-10T09:57:25.671Z,13.70
2023-04-10T09:59:56.097Z,13.84
2023-04-10T10:02:29.245Z,13.99
2023-04-10T10:05:00.879Z,14.07
2023-04-10T10:07:30.569Z,14.34
2023-04-10T10:10:01.708Z,14.30
2023-04-10T10:12:34.189Z,13.89
2023-04-10T10:15:06.208Z,13.99
2023-04-10T10:17:42.341Z,14.10
2023-04-10T10:20:13.444Z,14.14
2023-04-10T10:22:43.191Z,14.28
2023-04-10T10:25:13.521Z,14.26
2023-04-10T10:27:43.338Z,14.26
2023-04-10T10:30:25.690Z,14.32
2023-04-10T10:33:01.481Z,14.27
2023-04-10T10:35:31.074Z,14.66
2023-04-10T10:38:01.759Z,14.89
2023-04-10T10:40:34.749Z,15.10
2023-04-10T10:43:13.522Z,15.23
2023-04-10T10:45:45.883Z,14.97
2023-04-10T10:48:18.047Z,15.03
2023-04-10T10:50:57.228Z,15.33
2023-04-10T10:53:40.874Z,15.21
2023-04-10T10:56:37.897Z,15.28
2023-04-10T10:59:07.457Z,14.79
2023-04-10T11:01:36.980Z,14.94
2023-04-10T11:04:36.461Z,15.08
2023-04-10T11:07:08.576Z,15.23
2023-04-10T11:09:49.229Z,15.17
2023-04-10T11:12:19.151Z,15.36
2023-04-10T11:14:59.687Z,15.50
2023-04-10T11:17:52.151Z,15.57
2023-04-10T11:20:27.331Z,15.57
2023-04-10T11:23:20.581Z,15.36
2023-04-10T11:25:52.110Z,15.52
2023-04-10T11:28:36.936Z,15.32
2023-04-10T11:31:20.165Z,15.75
2023-04-10T11:33:50.520Z,15.66
2023-04-10T11:36:20.590Z,15.68
2023-04-10T11:38:59.793Z,15.75
2023-04-10T11:41:31.484Z,16.02
2023-04-10T11:44:01.847Z,15.99
2023-04-10T11:46:31.767Z,16.08
2023-04-10T11:49:02.632Z,16.12
2023-04-10T11:51:32.319Z,16.25
2023-04-10T11:54:11.953Z,16.30
2023-04-10T11:56:42.978Z,15.97
2023-04-10T11:59:14.600Z,16.18
2023-04-10T12:01:44.211Z,16.26
2023-04-10T12:04:18.438Z,16.59
2023-04-10T12:06:48.491Z,16.23
2023-04-10T12:09:22.269Z,16.35
2023-04-10T12:11:53.499Z,16.10
2023-04-10T12:14:23.820Z,16.24
2023-04-10T12:16:54.222Z,16.48
2023-04-10T12:19:24.198Z,16.27
2023-04-10T12:21:53.689Z,16.10
2023-04-10T12:24:47.492Z,15.95
2023-04-10T12:27:20.547Z,16.18
2023-04-10T12:29:50.818Z,16.42
2023-04-10T12:32:20.802Z,16.29
2023-04-10T12:34:53.515Z,16.50
2023-04-10T12:37:23.131Z,17.02
2023-04-10T12:39:55.549Z,16.81
2023-04-10T12:42:26.388Z,17.11
2023-04-10T12:44:57.017Z,17.03
2023-04-10T12:47:26.990Z,17.11
2023-04-10T12:50:06.315Z,17.29
2023-04-10T12:52:36.251Z,17.51
2023-04-10T12:55:19.918Z,17.71
2023-04-10T12:57:52.113Z,17.64
2023-04-10T13:00:22.779Z,17.59
2023-04-10T13:02:52.461Z,17.78
2023-04-10T13:05:22.295Z,17.67
2023-04-10T13:07:53.066Z,17.53
2023-04-10T13:10:25.429Z,17.29
2023-04-10T13:12:54.910Z,17.40
2023-04-10T13:15:24.599Z,17.38
2023-04-10T13:17:54.163Z,17.20
2023-04-10T13:20:24.533Z,17.00
2023-04-10T13:22:54.064Z,16.78
2023-04-10T13:25:27.790Z,16.98
2023-04-10T13:27:57.288Z,16.87
2023-04-10T13:30:26.834Z,16.72
2023-04-10T13:32:56.425Z,16.82
2023-04-10T13:35:25.935Z,16.37
2023-04-10T13:37:55.581Z,16.47
2023-04-10T13:40:27.757Z,16.52
2023-04-10T13:42:57.320Z,16.58
2023-04-10T13:45:26.891Z,16.50
2023-04-10T13:47:56.468Z,16.46
2023-04-10T13:50:26.029Z,16.21
2023-04-10T13:52:55.533Z,16.40
2023-04-10T13:55:27.785Z,16.60
2023-04-10T13:57:57.315Z,16.62
2023-04-10T14:00:26.923Z,16.59
2023-04-10T14:02:56.655Z,16.59
2023-04-10T14:05:26.298Z,16.48
2023-04-10T14:07:57.125Z,16.67
2023-04-10T14:10:29.314Z,16.56
2023-04-10T14:12:59.020Z,16.42
2023-04-10T14:15:28.561Z,16.54
2023-04-10T14:17:58.082Z,16.69
2023-04-10T14:20:27.679Z,16.73
2023-04-10T14:22:57.198Z,16.67
2023-04-10T14:25:29.307Z,16.60
2023-04-10T14:27:59.475Z,16.85
2023-04-10T14:30:31.102Z,16.96
2023-04-10T14:33:00.764Z,16.95
2023-04-10T14:35:30.482Z,16.76
2023-04-10T14:38:00.050Z,16.60
2023-04-10T14:40:32.150Z,16.74
2023-04-10T14:43:01.746Z,16.75
2023-04-10T14:45:32.796Z,16.65
2023-04-10T14:48:02.443Z,16.64
2023-04-10T14:50:34.257Z,16.73
2023-04-10T14:53:03.829Z,16.79
2023-04-10T14:55:36.029Z,16.74
2023-04-10T14:58:06.905Z,16.89
2023-04-10T15:00:36.381Z,17.16
2023-04-10T15:03:06.163Z,17.26
2023-04-10T15:05:35.943Z,17.13
2023-04-10T15:08:05.507Z,16.88
2023-04-10T15:10:37.560Z,17.01
2023-04-10T15:13:07.034Z,16.96
2023-04-10T15:15:36.553Z,17.02
2023-04-10T15:18:06.261Z,17.01
2023-04-10T15:20:35.833Z,17.11
2023-04-10T15:23:05.302Z,17.03
2023-04-10T15:25:37.945Z,16.72
2023-04-10T15:28:08.394Z,16.54
2023-04-10T15:30:37.917Z,16.51
2023-04-10T15:33:07.477Z,16.44
2023-04-10T15:35:37.217Z,16.32
2023-04-10T15:38:09.901Z,16.32
2023-04-10T15:40:42.292Z,16.46
2023-04-10T15:43:11.799Z,16.40
2023-04-10T15:45:41.713Z,16.57
2023-04-10T15:48:11.227Z,16.81
2023-04-10T15:50:40.858Z,16.84
2023-04-10T15:53:10.352Z,16.78
2023-04-10T15:55:44.453Z,16.76
2023-04-10T15:58:13.964Z,16.52
2023-04-10T16:00:43.528Z,16.44
2023-04-10T16:03:13.230Z,16.42
2023-04-10T16:05:42.836Z,16.26
2023-04-10T16:08:12.336Z,16.17
2023-04-10T16:10:44.449Z,15.99
2023-04-10T16:13:13.958Z,15.97
2023-04-10T16:15:43.595Z,15.76
2023-04-10T16:18:13.093Z,15.79
2023-04-10T16:20:43.742Z,15.72
2023-04-10T16:23:13.382Z,15.62
2023-04-10T16:25:45.512Z,15.61
2023-04-10T16:28:15.006Z,15.60
2023-04-10T16:30:44.487Z,15.59
2023-04-10T16:33:14.006Z,15.55
2023-04-10T16:35:43.571Z,15.43
2023-04-10T16:38:13.141Z,15.33
2023-04-10T16:40:45.217Z,15.31
2023-04-10T16:43:14.910Z,15.29
2023-04-10T16:45:44.386Z,15.32
2023-04-10T16:48:13.863Z,15.33
2023-04-10T16:50:43.376Z,15.16
2023-04-10T16:53:12.883Z,15.07
2023-04-10T16:55:45.026Z,14.98
2023-04-10T16:58:14.572Z,14.88
2023-04-10T17:00:44.079Z,14.80
2023-04-10T17:03:13.612Z,14.76
2023-04-10T17:05:43.160Z,14.75
2023-04-10T17:08:12.685Z,14.75
2023-04-10T17:10:44.762Z,14.71
2023-04-10T17:13:14.244Z,14.65
2023-04-10T17:15:43.749Z,14.62
2023-04-10T17:18:13.390Z,14.67
2023-04-10T17:20:42.956Z,14.65
2023-04-10T17:23:12.447Z,14.64
2023-04-10T17:25:45.014Z,14.63
2023-04-10T17:28:14.619Z,14.52
2023-04-10T17:30:45.751Z,14.54
2023-04-10T17:33:15.240Z,14.55
2023-04-10T17:35:44.967Z,14.54
2023-04-10T17:38:14.564Z,14.48
2023-04-10T17:40:46.654Z,14.45
2023-04-10T17:43:16.177Z,14.43
2023-04-10T17:45:45.851Z,14.38
2023-04-10T17:48:15.408Z,14.36
2023-04-10T17:50:44.918Z,14.28
2023-04-10T17:53:14.428Z,14.18
2023-04-10T17:55:48.051Z,14.11
2023-04-10T17:58:17.507Z,14.14
2023-04-10T18:00:46.982Z,14.08
2023-04-10T18:03:16.595Z,14.05
2023-04-10T18:05:46.157Z,14.02
2023-04-10T18:08:16.161Z,13.98
2023-04-10T18:10:48.709Z,13.96
2023-04-10T18:13:18.316Z,13.86
2023-04-10T18:15:47.789Z,13.87
2023-04-10T18:18:17.240Z,13.87
2023-04-10T18:20:46.758Z,13.78
2023-04-10T18:23:16.305Z,13.81
2023-04-10T18:25:54.764Z,13.79
2023-04-10T18:28:24.501Z,13.81
2023-04-10T18:30:56.867Z,13.79
2023-04-10T18:33:26.623Z,13.70
2023-04-10T18:35:57.420Z,13.68
2023-04-10T18:38:27.292Z,13.64
2023-04-10T18:41:00.460Z,13.64
2023-04-10T18:43:30.160Z,13.66
2023-04-10T18:46:00.108Z,13.59
2023-04-10T18:48:29.669Z,13.56
2023-04-10T18:50:59.228Z,13.57
2023-04-10T18:53:28.694Z,13.54
2023-04-10T18:56:00.759Z,13.49
2023-04-10T18:58:32.355Z,13.54
2023-04-10T19:01:01.955Z,13.47
2023-04-10T19:03:31.820Z,13.52
2023-04-10T19:06:01.506Z,13.46
2023-04-10T19:08:31.054Z,13.46
2023-04-10T19:11:06.614Z,13.41
2023-04-10T19:13:36.486Z,13.31
2023-04-10T19:16:06.978Z,13.39
2023-04-10T19:18:36.485Z,13.35
2023-04-10T19:21:06.069Z,13.34
2023-04-10T19:23:36.803Z,13.34
2023-04-10T19:26:09.904Z,13.27
2023-04-10T19:28:39.700Z,13.23
2023-04-10T19:31:09.670Z,13.27
2023-04-10T19:33:39.214Z,13.27
2023-04-10T19:36:09.817Z,13.20
2023-04-10T19:38:41.058Z,13.19
2023-04-10T19:41:18.746Z,13.18
2023-04-10T19:43:48.435Z,13.17
2023-04-10T19:46:21.415Z,13.19
2023-04-10T19:48:52.099Z,13.17
2023-04-10T19:51:21.643Z,13.15
2023-04-10T19:53:51.231Z,13.16
2023-04-10T19:56:23.347Z,13.17
2023-04-10T19:58:52.914Z,13.06
2023-04-10T20:01:24.403Z,13.08
2023-04-10T20:03:54.277Z,13.10
2023-04-10T20:06:24.294Z,13.07
2023-04-10T20:08:54.137Z,13.05
2023-04-10T20:11:30.705Z,13.13
2023-04-10T20:14:00.283Z,13.09
2023-04-10T20:16:29.859Z,13.14
2023-04-10T20:18:59.404Z,13.12
2023-04-10T20:21:29.394Z,13.08
2023-04-10T20:23:59.167Z,13.07
2023-04-10T20:26:31.311Z,13.04
2023-04-10T20:29:01.139Z,13.05
2023-04-10T20:31:31.653Z,13.04
2023-04-10T20:34:02.930Z,13.01
2023-04-10T20:36:32.504Z,13.01
2023-04-10T20:39:02.009Z,12.99
2023-04-10T20:41:34.109Z,12.95
2023-04-10T20:44:03.792Z,12.94
2023-04-10T20:46:33.329Z,12.92
2023-04-10T20:49:02.864Z,12.90
2023-04-10T20:51:33.789Z,12.90
2023-04-10T20:54:04.574Z,12.92
2023-04-10T20:56:43.461Z,12.99
2023-04-10T20:59:13.724Z,13.05
2023-04-10T21:01:43.304Z,12.91
2023-04-10T21:04:12.899Z,12.90
2023-04-10T21:06:42.369Z,12.93
2023-04-10T21:09:11.955Z,12.94
2023-04-10T21:11:44.190Z,12.87
2023-04-10T21:14:13.800Z,12.85
2023-04-10T21:16:45.953Z,12.82
2023-04-10T21:19:16.133Z,12.82
2023-04-10T21:21:45.694Z,12.80
2023-04-10T21:24:15.234Z,12.77
2023-04-10T21:26:47.279Z,12.82
2023-04-10T21:29:16.742Z,12.75
2023-04-10T21:31:46.772Z,12.64
2023-04-10T21:34:17.442Z,12.61
2023-04-10T21:36:46.909Z,12.56
2023-04-10T21:39:16.461Z,12.49
2023-04-10T21:41:48.608Z,12.49
2023-04-10T21:44:18.183Z,12.45
2023-04-10T21:46:47.689Z,12.43
2023-04-10T21:49:17.196Z,12.38
2023-04-10T21:51:46.700Z,12.30
2023-04-10T21:54:16.221Z,12.16
2023-04-10T21:56:48.356Z,12.05
2023-04-10T21:59:17.837Z,11.98
2023-04-10T22:01:47.471Z,11.89
2023-04-10T22:04:17.158Z,11.78
2023-04-10T22:06:46.719Z,11.65
2023-04-10T22:09:17.571Z,11.48
2023-04-10T22:11:49.635Z,11.39
2023-04-10T22:14:21.339Z,11.23
2023-04-10T22:16:51.062Z,11.05
2023-04-10T22:19:20.583Z,10.90
2023-04-10T22:21:50.183Z,10.85
2023-04-10T22:24:19.675Z,10.74
2023-04-10T22:26:51.734Z,10.70
2023-04-10T22:29:21.924Z,10.52
2023-04-10T22:31:51.447Z,10.34
2023-04-10T22:34:21.139Z,10.10
2023-04-10T22:36:51.975Z,9.88
2023-04-10T22:39:21.623Z,9.66
2023-04-10T22:41:53.766Z,9.36
2023-04-10T22:44:23.312Z,9.12
2023-04-10T22:46:52.800Z,8.98
2023-04-10T22:49:22.330Z,8.87
2023-04-10T22:51:51.862Z,8.84
2023-04-10T22:54:21.375Z,8.80
2023-04-10T22:56:53.473Z,8.82
2023-04-10T22:59:23.002Z,8.75
2023-04-10T23:01:52.554Z,8.71
2023-04-10T23:04:22.203Z,8.65
2023-04-10T23:06:51.747Z,8.64
2023-04-10T23:09:21.436Z,8.58
2023-04-10T23:11:53.752Z,8.57
2023-04-10T23:14:23.490Z,8.54
2023-04-10T23:16:53.063Z,8.59
2023-04-10T23:19:22.631Z,8.56
2023-04-10T23:21:53.673Z,8.48
2023-04-10T23:24:23.198Z,8.53
2023-04-10T23:26:55.281Z,8.47
2023-04-10T23:29:24.863Z,8.48
2023-04-10T23:31:54.372Z,8.46
2023-04-10T23:34:23.904Z,8.49
2023-04-10T23:36:53.429Z,8.53
2023-04-10T23:39:23.106Z,8.48
2023-04-10T23:41:56.025Z,8.57
2023-04-10T23:44:25.732Z,8.50
2023-04-10T23:46:55.332Z,8.51
2023-04-10T23:49:24.912Z,8.54
2023-04-10T23:51:54.376Z,8.51
2023-04-10T23:54:23.917Z,8.51
2023-04-10T23:56:56.013Z,8.51
2023-04-10T23:59:25.555Z,8.55
